Time;durP1;ratioP1;P1;durP2;ratioP2;P2;SDS_P1;SDS_P2;PMS_P1;PMS_P2;Temp;Humidity;BMP_temperature;BMP_pressure;BME280_temperature;BME280_humidity;BME280_pressure;Samples;Min_cycle;Max_cycle;Signal;HPM_P1;HPM_P2
2022/05/10 00:01:33;;;;;;;1.90;1.40;;;;;;;11.97;45.95;100415.81;5077952;28;20084;-59
2022/05/10 00:04:06;;;;;;;2.53;1.45;;;;;;;11.48;46.91;100335.56;5078011;28;20101;-58
2022/05/10 00:06:41;;;;;;;4.45;1.42;;;;;;;12.06;46.75;100420.03;5078101;28;20081;-59
2022/05/10 00:09:12;;;;;;;3.72;1.63;;;;;;;11.72;46.52;100432.84;5078127;28;20079;-59
2022/05/10 00:11:44;;;;;;;4.57;1.70;;;;;;;11.65;49.50;100390.22;5077978;28;20056;-59
2022/05/10 00:14:15;;;;;;;3.05;1.55;;;;;;;12.42;49.69;100431.47;5077697;28;20092;-59
2022/05/10 00:16:51;;;;;;;2.40;1.45;;;;;;;12.79;49.35;100433.31;5077838;28;20075;-59
2022/05/10 00:19:27;;;;;;;2.25;1.75;;;;;;;12.97;47.14;100425.91;5077565;28;20102;-59
2022/05/10 00:21:58;;;;;;;4.10;1.73;;;;;;;13.04;47.96;100440.59;5077478;28;20036;-59
2022/05/10 00:24:29;;;;;;;3.40;1.75;;;;;;;13.05;46.15;100437.06;5075694;28;20064;-59
2022/05/10 00:27:00;;;;;;;2.47;1.50;;;;;;;12.93;45.73;100439.09;5074729;28;20055;-59
2022/05/10 00:29:31;;;;;;;4.20;2.05;;;;;;;13.02;46.11;100442.41;5077222;28;20132;-58
2022/05/10 00:32:02;;;;;;;3.72;1.50;;;;;;;12.91;45.67;100430.41;5077363;28;20082;-58
2022/05/10 00:34:35;;;;;;;2.13;1.55;;;;;;;13.07;47.57;100436.13;5077204;28;20075;-58
2022/05/10 00:37:06;;;;;;;2.63;1.40;;;;;;;12.93;47.56;100385.78;5072670;28;20366;-58
2022/05/10 00:39:37;;;;;;;3.30;1.70;;;;;;;13.51;47.30;100441.22;5065939;28;20053;-58
2022/05/10 00:42:22;;;;;;;2.38;1.30;;;;;;;13.59;43.92;100439.25;5063212;28;20059;-59
2022/05/10 00:44:58;;;;;;;3.40;1.40;;;;;;;13.47;42.66;100434.31;5063338;28;20060;-58
2022/05/10 00:47:37;;;;;;;1.80;1.20;;;;;;;13.36;41.88;100432.84;5062849;28;20126;-59
2022/05/10 00:50:15;;;;;;;3.05;1.20;;;;;;;13.07;42.95;100430.03;5062920;28;20055;-59
2022/05/10 00:52:52;;;;;;;2.85;1.30;;;;;;;13.30;45.68;100396.22;5062915;28;20072;-58
2022/05/10 00:55:28;;;;;;;6.90;2.05;;;;;;;13.08;44.97;100316.31;5062200;28;20060;-58
2022/05/10 00:58:05;;;;;;;3.70;1.13;;;;;;;13.57;41.63;100430.56;5052528;28;20347;-58
2022/05/10 01:00:36;;;;;;;1.90;1.20;;;;;;;13.55;45.39;100428.00;5062012;28;20066;-58
2022/05/10 01:03:14;;;;;;;2.08;1.40;;;;;;;13.78;46.47;100421.28;5061936;28;20099;-60
2022/05/10 01:05:52;;;;;;;4.32;1.20;;;;;;;14.00;43.61;100424.16;5063800;28;20107;-58
2022/05/10 01:08:26;;;;;;;4.63;1.33;;;;;;;14.19;45.78;100430.59;5061069;28;20107;-58
2022/05/10 01:11:02;;;;;;;1.92;1.27;;;;;;;14.12;42.96;100428.19;5062927;28;20073;-58
2022/05/10 01:13:35;;;;;;;1.10;0.90;;;;;;;14.02;39.75;100444.22;5062145;28;20063;-58
2022/05/10 01:16:09;;;;;;;1.45;0.90;;;;;;;13.57;38.51;100425.31;5062357;28;20258;-58
2022/05/10 01:18:40;;;;;;;1.42;1.00;;;;;;;13.20;39.93;100431.44;5062012;28;20063;-59
2022/05/10 01:21:30;;;;;;;0.90;0.70;;;;;;;13.07;39.68;100440.53;5062468;28;20052;-58
2022/05/10 01:24:54;;;;;;;2.03;1.10;;;;;;;13.06;40.56;100444.91;5062466;28;20060;-57
2022/05/10 01:27:42;;;;;;;5.05;1.20;;;;;;;12.97;40.03;100428.53;4990902;28;20054;-57
2022/05/10 01:30:17;;;;;;;2.45;0.98;;;;;;;13.13;41.16;100433.38;4991026;28;20058;-58
2022/05/10 01:35:54;;;;;;;4.25;1.35;;;;;;;13.61;41.23;100426.97;5062433;28;20041;-58
2022/05/10 01:38:32;;;;;;;4.50;1.30;;;;;;;13.23;40.35;100393.78;5062793;28;20059;-57
2022/05/10 01:41:10;;;;;;;3.00;1.27;;;;;;;13.62;41.25;100426.06;5066789;28;20048;-58
2022/05/10 01:43:45;;;;;;;1.48;1.08;;;;;;;13.45;38.78;100415.97;5066791;28;20060;-58
2022/05/10 01:46:22;;;;;;;1.50;1.30;;;;;;;13.59;41.94;100428.75;5066810;28;20071;-57
2022/05/10 01:49:00;;;;;;;3.35;1.13;;;;;;;13.73;40.03;100425.78;5065843;28;20048;-57
2022/05/10 01:51:36;;;;;;;2.13;1.00;;;;;;;13.73;40.51;100426.63;5066326;28;20056;-58
2022/05/10 01:54:30;;;;;;;3.13;1.70;;;;;;;13.66;38.31;100425.06;5065938;28;20267;-58
2022/05/10 01:57:01;;;;;;;2.30;1.05;;;;;;;13.67;38.51;100425.94;5066150;28;20048;-58
2022/05/10 01:59:31;;;;;;;0.90;0.80;;;;;;;13.70;37.88;100416.19;5066182;28;20368;-57
2022/05/10 02:02:07;;;;;;;1.55;0.88;;;;;;;13.45;39.71;100407.25;5065956;28;20060;-58
2022/05/10 02:04:41;;;;;;;1.02;0.90;;;;;;;13.20;41.01;100386.84;5066112;28;20052;-58
2022/05/10 02:07:18;;;;;;;2.72;0.98;;;;;;;13.50;41.17;100397.50;5065776;28;20112;-58
2022/05/10 02:09:54;;;;;;;1.92;0.90;;;;;;;13.60;38.04;100404.22;5066172;28;20080;-59
2022/05/10 02:12:31;;;;;;;1.33;1.10;;;;;;;13.75;39.41;100393.31;5065612;28;20044;-58
2022/05/10 02:15:07;;;;;;;1.10;1.00;;;;;;;13.81;39.31;100394.91;5065904;28;20120;-58
2022/05/10 02:17:44;;;;;;;2.05;1.00;;;;;;;13.94;41.48;100335.00;5066078;28;20307;-58
2022/05/10 02:20:22;;;;;;;2.05;0.90;;;;;;;14.11;38.97;100393.19;5065991;28;20060;-58
2022/05/10 02:23:00;;;;;;;1.63;1.10;;;;;;;14.07;38.37;100394.16;5065600;28;20295;-59
2022/05/10 02:25:35;;;;;;;1.67;1.08;;;;;;;14.13;38.71;100396.63;5065801;28;20060;-59
2022/05/10 02:28:14;;;;;;;1.73;1.17;;;;;;;14.37;40.36;100402.06;5064924;28;20134;-59
2022/05/10 02:30:45;;;;;;;1.42;1.10;;;;;;;14.32;38.20;100404.81;5065852;28;20080;-58
2022/05/10 02:33:19;;;;;;;4.10;1.50;;;;;;;14.22;38.79;100409.50;5065367;28;20052;-59
2022/05/10 02:35:53;;;;;;;1.73;1.20;;;;;;;14.05;39.13;100406.47;5065585;28;20053;-58
2022/05/10 02:38:27;;;;;;;2.10;1.30;;;;;;;14.21;39.08;100406.94;5065042;28;20123;-59
2022/05/10 02:41:00;;;;;;;2.13;1.40;;;;;;;14.41;41.59;100403.72;5065339;28;20247;-59
2022/05/10 02:43:33;;;;;;;1.92;1.38;;;;;;;14.38;37.16;100403.81;5065421;28;20286;-58
2022/05/10 02:46:04;;;;;;;3.25;1.25;;;;;;;14.11;39.08;100424.72;5065351;28;20041;-58
2022/05/10 02:48:38;;;;;;;2.30;1.50;;;;;;;14.05;39.90;100395.97;5065018;28;20144;-59
2022/05/10 02:51:09;;;;;;;5.47;1.60;;;;;;;14.34;41.33;100396.91;5064805;28;20261;-58
2022/05/10 02:53:40;;;;;;;1.83;1.30;;;;;;;14.47;37.66;100398.25;5065220;28;20053;-58
2022/05/10 02:56:13;;;;;;;2.67;1.33;;;;;;;14.29;38.50;100393.56;5065096;28;20115;-58
2022/05/10 02:58:49;;;;;;;1.30;1.20;;;;;;;14.48;41.86;100409.63;5065133;28;20335;-59
2022/05/10 03:01:24;;;;;;;6.75;1.70;;;;;;;14.58;41.28;100417.25;5064918;28;20060;-58
2022/05/10 03:03:57;;;;;;;1.48;1.10;;;;;;;14.66;40.65;100420.50;5064562;28;20064;-58
2022/05/10 03:06:30;;;;;;;3.30;1.42;;;;;;;14.53;38.83;100418.25;5065055;28;20072;-59
2022/05/10 03:09:01;;;;;;;2.07;1.40;;;;;;;14.50;41.83;100408.66;5064983;28;20108;-58
2022/05/10 03:11:31;;;;;;;1.63;1.33;;;;;;;14.72;40.08;100424.69;5064628;28;20311;-58
2022/05/10 03:14:02;;;;;;;1.23;1.13;;;;;;;14.75;39.99;100423.72;5064553;28;20272;-57
2022/05/10 03:16:34;;;;;;;2.77;1.40;;;;;;;14.62;39.76;100421.47;5064937;28;20289;-58
2022/05/10 03:19:06;;;;;;;1.20;1.10;;;;;;;14.68;39.56;100428.34;5064687;28;20287;-58
2022/05/10 03:21:41;;;;;;;1.43;1.20;;;;;;;14.84;41.20;100428.72;5064565;28;20613;-59
2022/05/10 03:24:12;;;;;;;2.70;1.00;;;;;;;14.76;38.81;100420.22;5064745;28;20315;-58
2022/05/10 03:26:48;;;;;;;1.23;1.10;;;;;;;14.98;41.88;100421.25;5064726;28;20119;-58
2022/05/10 03:29:20;;;;;;;1.70;1.20;;;;;;;15.25;40.50;100402.81;5064863;28;20550;-58
2022/05/10 03:31:51;;;;;;;1.40;1.10;;;;;;;15.61;38.83;100426.19;5064250;28;20374;-58
2022/05/10 03:37:15;;;;;;;4.67;1.40;;;;;;;15.41;39.04;100440.91;5064163;28;20333;-58
2022/05/10 03:39:45;;;;;;;2.53;1.17;;;;;;;15.52;39.60;100441.41;5064256;28;20307;-58
2022/05/10 03:42:20;;;;;;;1.50;1.07;;;;;;;15.33;37.16;100421.88;5064181;28;20372;-58
2022/05/10 03:44:52;;;;;;;2.77;1.40;;;;;;;15.36;38.66;100434.94;5063428;28;20613;-58
2022/05/10 03:47:24;;;;;;;3.57;1.53;;;;;;;15.37;38.80;100433.16;5064269;28;21496;-58
2022/05/10 03:49:56;;;;;;;4.53;1.30;;;;;;;15.63;40.67;100440.19;5064016;28;20329;-58
2022/05/10 03:52:27;;;;;;;2.23;1.10;;;;;;;16.03;41.62;100444.09;5062106;28;20486;-59
2022/05/10 03:54:58;;;;;;;4.37;1.50;;;;;;;16.07;39.60;100437.78;5063507;28;20284;-58
2022/05/10 03:57:28;;;;;;;3.30;1.27;;;;;;;16.09;37.10;100444.69;5063908;28;20283;-58
2022/05/10 03:59:59;;;;;;;2.13;1.33;;;;;;;16.04;37.20;100440.53;5063838;28;20334;-58
2022/05/10 04:02:30;;;;;;;2.53;1.40;;;;;;;15.95;35.40;100442.59;5063183;28;20311;-58
2022/05/10 04:05:02;;;;;;;2.43;1.30;;;;;;;15.68;36.59;100438.25;5063930;28;21181;-58
2022/05/10 04:07:33;;;;;;;5.20;1.10;;;;;;;15.68;37.19;100439.09;5063612;28;20282;-57
2022/05/10 04:10:05;;;;;;;1.77;1.23;;;;;;;15.72;39.36;100413.53;5063104;28;20336;-57
2022/05/10 04:12:37;;;;;;;2.50;1.27;;;;;;;16.20;39.51;100435.53;5063560;28;20280;-58
2022/05/10 04:15:10;;;;;;;2.27;1.00;;;;;;;16.00;35.44;100434.50;5063825;28;20334;-57
2022/05/10 04:17:42;;;;;;;4.87;1.10;;;;;;;15.82;36.18;100428.09;5063970;28;20315;-57
2022/05/10 04:20:16;;;;;;;3.40;1.30;;;;;;;16.08;38.78;100410.50;5063479;28;20287;-57
2022/05/10 04:22:47;;;;;;;4.23;1.50;;;;;;;16.35;36.97;100425.31;5063889;28;20315;-58
2022/05/10 04:25:23;;;;;;;6.30;1.50;;;;;;;16.51;38.22;100424.72;5063411;28;20586;-58
2022/05/10 04:27:55;;;;;;;3.80;1.40;;;;;;;16.63;38.30;100444.50;5063195;28;20392;-57
2022/05/10 04:30:26;;;;;;;3.10;1.30;;;;;;;16.66;38.30;100432.03;5060391;28;20489;-57
2022/05/10 04:32:57;;;;;;;2.50;1.67;;;;;;;16.71;35.47;100432.72;5062922;28;20517;-58
2022/05/10 04:35:30;;;;;;;3.10;1.40;;;;;;;16.57;34.65;100429.75;5063551;28;20295;-58
2022/05/10 04:38:03;;;;;;;1.73;1.10;;;;;;;16.68;37.01;100438.13;5063216;28;20634;-58
2022/05/10 04:43:23;;;;;;;4.07;1.30;;;;;;;16.82;34.27;100429.66;5063608;28;20281;-58
2022/05/10 04:45:54;;;;;;;5.27;1.80;;;;;;;16.88;37.97;100428.59;5062668;28;20283;-59
2022/05/10 04:48:26;;;;;;;2.07;1.40;;;;;;;17.18;37.73;100442.34;5062853;28;20314;-57
2022/05/10 04:51:00;;;;;;;4.03;2.00;;;;;;;17.21;35.60;100442.19;5063020;28;20330;-57
2022/05/10 04:53:31;;;;;;;2.47;1.30;;;;;;;17.26;35.02;100434.94;5062757;28;20602;-58
2022/05/10 04:56:03;;;;;;;1.87;1.10;;;;;;;17.25;35.70;100428.81;5062647;28;20284;-57
2022/05/10 04:58:35;;;;;;;2.13;1.17;;;;;;;17.25;36.88;100428.81;5062509;28;20291;-57
2022/05/10 05:01:08;;;;;;;2.03;1.07;;;;;;;17.49;36.04;100431.34;5062779;28;20283;-58
2022/05/10 05:03:43;;;;;;;2.13;1.17;;;;;;;17.42;35.50;100424.59;5060525;28;20292;-57
2022/05/10 05:06:17;;;;;;;3.10;1.20;;;;;;;17.33;35.04;100427.63;5062575;28;20644;-58
2022/05/10 05:08:48;;;;;;;1.93;1.10;;;;;;;17.07;34.96;100423.41;5062425;28;20288;-58
2022/05/10 05:11:20;;;;;;;1.80;0.80;;;;;;;16.88;33.13;100436.50;5062314;28;20373;-58
2022/05/10 05:13:52;;;;;;;1.47;0.90;;;;;;;16.65;32.57;100434.72;5060155;28;20311;-58
2022/05/10 05:16:24;;;;;;;2.30;1.23;;;;;;;16.61;33.05;100436.63;5063029;28;20344;-58
2022/05/10 05:18:56;;;;;;;2.47;1.20;;;;;;;16.55;32.90;100428.97;5062514;28;20564;-58
2022/05/10 05:21:28;;;;;;;2.27;1.30;;;;;;;16.68;33.50;100440.75;5061610;28;20733;-58
2022/05/10 05:24:00;;;;;;;2.33;1.57;;;;;;;16.75;33.84;100450.16;5062567;28;20275;-58
2022/05/10 05:26:31;;;;;;;4.37;1.30;;;;;;;16.69;33.21;100434.53;5062765;28;20297;-57
2022/05/10 05:29:02;;;;;;;2.03;1.40;;;;;;;16.81;34.12;100443.81;5062701;28;20288;-59
2022/05/10 05:31:40;;;;;;;3.23;1.00;;;;;;;16.88;33.71;100439.16;5061001;28;20703;-58
2022/05/10 05:34:12;;;;;;;18.07;2.67;;;;;;;17.09;35.79;100443.56;5062403;28;20306;-57
2022/05/10 05:37:32;;;;;;;3.83;1.20;;;;;;;17.11;32.70;100430.31;5062717;28;20325;-58
2022/05/10 05:39:37;;;;;;;3.27;1.07;;;;;;;17.09;32.87;100438.28;5062170;28;20293;-57
2022/05/10 05:42:10;;;;;;;1.10;1.00;;;;;;;17.21;34.23;100432.50;5062802;28;20279;-58
2022/05/10 05:44:41;;;;;;;2.47;1.37;;;;;;;17.27;32.10;100425.25;5062586;28;20292;-58
2022/05/10 05:47:13;;;;;;;1.90;1.40;;;;;;;17.12;31.54;100438.13;5062295;28;20279;-58
2022/05/10 05:49:45;;;;;;;9.60;1.40;;;;;;;17.25;33.58;100434.09;5062182;28;20291;-58
2022/05/10 05:52:21;;;;;;;3.77;1.20;;;;;;;17.20;32.90;100433.44;5061602;28;20317;-58
2022/05/10 05:54:55;;;;;;;3.67;1.13;;;;;;;17.13;33.89;100429.31;5062710;28;20288;-58
2022/05/10 05:57:26;;;;;;;1.20;0.80;;;;;;;17.08;33.32;100431.28;5062300;28;20537;-58
2022/05/10 06:00:00;;;;;;;5.57;1.20;;;;;;;17.31;34.87;100418.91;5062341;28;20291;-59
2022/05/10 06:02:31;;;;;;;2.27;1.03;;;;;;;17.46;33.22;100428.84;5062530;28;20288;-58
2022/05/10 06:05:03;;;;;;;2.83;1.00;;;;;;;17.54;34.65;100429.34;5062141;28;20285;-58
2022/05/10 06:07:37;;;;;;;6.10;2.37;;;;;;;17.81;37.31;100447.63;5062298;28;20287;-58
2022/05/10 06:10:11;;;;;;;9.57;2.60;;;;;;;17.75;38.65;100442.59;5062189;28;20307;-58
2022/05/10 06:12:43;;;;;;;6.13;1.70;;;;;;;17.45;37.65;100403.34;5062336;28;20656;-58
2022/05/10 06:15:17;;;;;;;4.83;1.63;;;;;;;17.32;39.77;100407.41;5062135;28;20331;-58
2022/05/10 06:17:50;;;;;;;4.77;1.63;;;;;;;17.40;39.05;100450.25;5062003;28;20343;-58
2022/05/10 06:20:24;;;;;;;8.70;1.57;;;;;;;17.24;38.84;100448.22;5062168;28;20291;-58
2022/05/10 06:22:58;;;;;;;3.53;1.37;;;;;;;17.00;38.75;100449.22;5062132;28;20287;-58
2022/05/10 06:25:30;;;;;;;8.27;1.70;;;;;;;16.79;38.79;100467.59;5064530;28;20290;-58
2022/05/10 06:28:01;;;;;;;11.07;2.57;;;;;;;16.58;39.37;100468.41;5065597;28;20295;-58
2022/05/10 06:30:33;;;;;;;3.93;2.20;;;;;;;16.38;39.36;100477.06;5065275;28;20299;-58
2022/05/10 06:33:04;;;;;;;5.93;3.17;;;;;;;16.20;39.64;100478.59;5064047;28;20329;-58
2022/05/10 06:35:35;;;;;;;5.20;2.90;;;;;;;16.08;40.16;100484.31;5065657;28;20279;-58
2022/05/10 06:38:19;;;;;;;2.93;1.60;;;;;;;16.03;39.92;100486.25;5065377;28;20301;-58
2022/05/10 06:40:51;;;;;;;6.57;1.90;;;;;;;16.09;40.21;100486.88;5065391;28;20469;-58
2022/05/10 06:43:22;;;;;;;14.17;3.57;;;;;;;16.15;40.05;100486.69;5065455;28;20629;-58
2022/05/10 06:45:57;;;;;;;35.47;19.03;;;;;;;16.12;39.24;100499.09;5065735;28;20295;-58
2022/05/10 06:48:29;;;;;;;23.37;15.93;;;;;;;15.91;39.26;100485.75;5065274;28;21041;-58
2022/05/10 06:51:00;;;;;;;7.30;4.10;;;;;;;15.88;39.83;100483.25;5065375;28;20295;-58
2022/05/10 06:53:33;;;;;;;5.13;2.73;;;;;;;15.93;39.88;100497.13;5065405;28;20325;-58
2022/05/10 06:56:06;;;;;;;18.33;11.07;;;;;;;16.04;39.73;100498.50;5064981;28;20363;-58
2022/05/10 06:58:38;;;;;;;12.87;8.10;;;;;;;16.01;39.97;100503.91;5064978;28;20290;-58
2022/05/10 07:01:12;;;;;;;7.97;3.57;;;;;;;15.91;39.53;100504.19;5064161;28;20319;-59
2022/05/10 07:03:46;;;;;;;9.03;3.03;;;;;;;15.74;39.63;100502.13;5064980;28;20286;-58
2022/05/10 07:06:19;;;;;;;9.00;5.97;;;;;;;15.72;39.70;100509.25;5064814;28;20375;-58
2022/05/10 07:08:52;;;;;;;7.33;2.70;;;;;;;15.62;39.08;100509.56;5063112;28;20374;-59
2022/05/10 07:11:23;;;;;;;9.17;2.90;;;;;;;15.38;39.40;100519.16;5063869;28;20287;-57
2022/05/10 07:13:54;;;;;;;10.20;3.20;;;;;;;15.23;39.10;100526.63;5064567;28;20590;-58
2022/05/10 07:16:25;;;;;;;5.27;2.57;;;;;;;15.07;39.39;100522.72;5063553;28;20279;-58
2022/05/10 07:18:57;;;;;;;9.70;2.50;;;;;;;14.97;39.80;100508.13;5064451;28;20280;-57
2022/05/10 07:21:28;;;;;;;6.10;2.97;;;;;;;14.95;41.66;100526.63;5063846;28;20291;-58
2022/05/10 07:24:01;;;;;;;6.70;2.60;;;;;;;14.93;41.30;100528.41;5064720;28;20287;-58
2022/05/10 07:26:33;;;;;;;7.97;4.03;;;;;;;14.91;41.58;100524.97;5064750;28;20291;-57
2022/05/10 07:29:04;;;;;;;6.10;3.60;;;;;;;14.79;40.47;100530.59;5064350;28;20605;-57
2022/05/10 07:31:36;;;;;;;19.20;3.60;;;;;;;14.75;40.75;100534.22;5064078;28;20605;-57
2022/05/10 07:34:08;;;;;;;5.83;2.30;;;;;;;14.79;41.04;100530.59;5064522;28;20287;-57
2022/05/10 07:36:39;;;;;;;7.63;2.50;;;;;;;14.72;41.16;100523.78;5063989;28;20313;-57
2022/05/10 07:39:15;;;;;;;6.63;2.30;;;;;;;14.82;41.95;100531.34;5064178;28;20279;-58
2022/05/10 07:41:48;;;;;;;7.73;2.27;;;;;;;14.83;41.46;100542.75;5064198;28;20770;-57
2022/05/10 07:44:19;;;;;;;5.30;2.47;;;;;;;14.71;40.36;100548.38;5063419;28;20287;-58
2022/05/10 07:46:51;;;;;;;14.37;3.73;;;;;;;14.51;40.35;100546.28;5064130;28;20275;-58
2022/05/10 07:49:22;;;;;;;9.47;3.73;;;;;;;14.41;41.23;100545.66;5063483;28;20353;-58
2022/05/10 07:51:54;;;;;;;31.23;17.00;;;;;;;14.15;41.97;100528.84;5064105;28;20368;-57
2022/05/10 07:54:28;;;;;;;8.30;3.40;;;;;;;14.18;42.98;100555.03;5064430;28;20294;-58
2022/05/10 07:56:59;;;;;;;8.27;3.10;;;;;;;14.13;43.47;100556.06;5063846;28;20302;-58
2022/05/10 07:59:31;;;;;;;9.93;3.70;;;;;;;14.13;43.81;100562.19;5054003;28;20362;-58
2022/05/10 08:02:07;;;;;;;10.68;4.43;;;;;;;14.02;42.60;100564.22;5062531;28;20295;-57
2022/05/10 08:04:38;;;;;;;11.32;3.38;;;;;;;13.89;43.83;100565.44;5063343;28;20090;-57
2022/05/10 08:07:10;;;;;;;6.88;2.70;;;;;;;13.79;44.46;100568.28;5063476;28;20045;-58
2022/05/10 08:09:42;;;;;;;9.32;3.15;;;;;;;13.72;44.45;100574.59;5063520;28;20047;-58
2022/05/10 08:12:14;;;;;;;7.88;3.08;;;;;;;13.67;45.09;100565.97;5063564;28;20045;-57
2022/05/10 08:14:45;;;;;;;7.68;3.20;;;;;;;13.75;45.41;100571.91;5062602;28;20053;-58
2022/05/10 08:17:16;;;;;;;12.38;3.65;;;;;;;13.73;45.97;100576.34;5063267;28;20108;-57
2022/05/10 08:19:50;;;;;;;72.22;41.38;;;;;;;13.68;45.90;100580.84;5063256;28;20126;-57
2022/05/10 08:22:21;;;;;;;31.85;13.32;;;;;;;13.58;46.40;100590.69;5062036;28;20056;-58
2022/05/10 08:24:56;;;;;;;23.50;9.90;;;;;;;13.47;47.07;100597.06;5062529;28;20060;-59
2022/05/10 08:27:28;;;;;;;19.23;8.65;;;;;;;13.48;48.19;100598.78;5063604;28;20044;-58
2022/05/10 08:29:59;;;;;;;19.13;5.45;;;;;;;13.42;48.22;100598.94;5063996;28;20045;-57
2022/05/10 08:32:30;;;;;;;12.75;5.00;;;;;;;13.31;49.01;100613.19;5062535;28;20049;-58
2022/05/10 08:35:23;;;;;;;13.82;4.75;;;;;;;13.02;49.51;100620.78;5063008;28;20072;-58
2022/05/10 08:37:54;;;;;;;14.15;4.95;;;;;;;12.90;49.89;100622.78;5063096;28;20410;-57
2022/05/10 08:40:31;;;;;;;19.42;6.25;;;;;;;12.47;50.10;100599.13;5063480;28;20060;-57
2022/05/10 08:43:07;;;;;;;17.60;7.45;;;;;;;12.39;50.28;100643.81;5063284;28;20421;-57
2022/05/10 08:45:42;;;;;;;18.58;5.53;;;;;;;12.24;51.21;100641.47;5062283;28;20053;-56
2022/05/10 08:48:13;;;;;;;19.83;5.97;;;;;;;12.14;51.38;100642.53;5063077;28;20285;-58
2022/05/10 08:50:48;;;;;;;13.63;5.05;;;;;;;11.99;51.44;100657.59;5062542;28;20084;-57
2022/05/10 08:53:20;;;;;;;12.93;5.05;;;;;;;11.82;51.93;100643.84;5063433;28;20079;-58
2022/05/10 08:55:57;;;;;;;13.60;4.97;;;;;;;11.60;51.90;100646.78;5062299;28;20045;-57
2022/05/10 08:58:48;;;;;;;16.88;4.45;;;;;;;11.44;52.55;100676.69;5062948;28;20048;-57
2022/05/10 09:01:48;;;;;;;15.90;4.65;;;;;;;11.20;53.07;100670.88;5062495;28;20047;-57
2022/05/10 09:04:32;;;;;;;13.13;4.60;;;;;;;10.96;53.79;100665.97;5063096;28;20374;-58
2022/05/10 09:07:14;;;;;;;20.42;6.50;;;;;;;10.82;53.98;100688.78;5062566;28;20229;-57
2022/05/10 09:09:57;;;;;;;18.23;5.80;;;;;;;10.66;54.30;100699.38;5062853;28;20106;-55
2022/05/10 09:12:31;;;;;;;17.33;5.35;;;;;;;10.28;54.22;100674.47;5062718;28;20048;-57
2022/05/10 09:15:06;;;;;;;17.88;4.97;;;;;;;10.22;54.97;100703.22;5062398;28;20051;-57
2022/05/10 09:17:39;;;;;;;17.73;6.07;;;;;;;10.10;55.24;100703.31;5062532;28;20082;-57
2022/05/10 09:20:12;;;;;;;20.83;6.13;;;;;;;9.92;55.06;100699.94;5063011;28;20087;-57
2022/05/10 09:23:16;;;;;;;13.43;4.32;;;;;;;9.64;55.49;100699.25;5062292;28;20080;-57
2022/05/10 09:25:47;;;;;;;31.83;12.02;;;;;;;9.53;56.13;100713.22;5062257;28;20075;-55
2022/05/10 09:28:35;;;;;;;42.70;21.95;;;;;;;9.37;56.57;100715.91;5062632;28;20060;-58
2022/05/10 09:34:50;;;;;;;11.35;4.70;;;;;;;8.97;57.88;100716.03;5040812;28;20470;-57
2022/05/10 09:37:26;;;;;;;13.18;4.07;;;;;;;8.79;58.32;100726.50;5052554;28;20538;-56
2022/05/10 09:40:32;;;;;;;15.30;4.25;;;;;;;8.44;58.88;100696.16;5062753;28;20119;-57
2022/05/10 09:43:22;;;;;;;19.05;4.22;;;;;;;8.48;59.55;100736.94;5000550;28;20053;-57
2022/05/10 09:46:07;;;;;;;;;;;;;;;8.33;60.23;100736.91;5001076;28;20064;-58
2022/05/10 09:48:39;;;;;;;13.93;4.00;;;;;;;8.06;60.53;100738.59;5047032;28;20199;-58
2022/05/10 09:51:31;;;;;;;11.63;4.50;;;;;;;8.03;61.45;100754.22;5062382;28;20363;-56
2022/05/10 09:54:06;;;;;;;8.50;3.90;;;;;;;7.88;61.75;100759.41;5059624;28;20389;-56
2022/05/10 09:56:39;;;;;;;12.43;3.70;;;;;;;7.70;62.80;100771.50;5061286;28;20139;-56
2022/05/10 09:59:30;;;;;;;11.95;3.53;;;;;;;7.50;63.15;100763.59;5061497;28;20129;-57
2022/05/10 10:02:03;;;;;;;9.60;3.55;;;;;;;7.18;63.42;100745.25;5066525;28;20075;-57
2022/05/10 10:04:37;;;;;;;10.25;3.40;;;;;;;7.30;63.67;100780.84;5065955;28;20094;-55
2022/05/10 10:07:13;;;;;;;12.82;3.83;;;;;;;7.21;64.28;100786.84;5066396;28;20052;-57
2022/05/10 10:09:45;;;;;;;11.77;3.40;;;;;;;7.08;64.34;100785.06;5065925;28;20056;-56
2022/05/10 10:12:21;;;;;;;9.23;3.65;;;;;;;7.09;64.47;100797.19;5066662;28;20140;-56
2022/05/10 10:14:52;;;;;;;8.88;4.07;;;;;;;7.06;65.04;100812.75;5060469;28;20053;-54
2022/05/10 10:17:30;;;;;;;10.68;4.15;;;;;;;6.97;64.98;100812.72;5065342;28;20075;-56
2022/05/10 10:20:06;;;;;;;11.52;3.88;;;;;;;6.91;65.51;100824.81;5065725;28;20624;-55
2022/05/10 10:22:45;;;;;;;6.82;3.30;;;;;;;6.84;65.69;100830.81;5065637;28;20185;-56
2022/05/10 10:25:21;;;;;;;11.00;4.35;;;;;;;6.80;66.03;100835.97;5065314;28;20115;-56
2022/05/10 10:27:58;;;;;;;10.10;4.43;;;;;;;6.71;66.38;100831.53;5065511;28;20044;-55
2022/05/10 10:30:33;;;;;;;11.13;4.88;;;;;;;6.43;66.34;100800.13;5064415;28;20044;-54
2022/05/10 10:33:14;;;;;;;16.95;5.15;;;;;;;6.55;66.96;100840.06;5064578;28;20083;-55
2022/05/10 10:35:51;;;;;;;18.58;4.65;;;;;;;6.59;66.91;100849.59;5063354;28;20056;-56
2022/05/10 10:38:25;;;;;;;10.88;4.65;;;;;;;6.51;67.11;100843.47;5064707;28;20040;-52
2022/05/10 10:41:03;;;;;;;9.80;4.10;;;;;;;6.55;67.48;100858.25;5064764;28;20040;-57
2022/05/10 10:43:48;;;;;;;10.85;4.28;;;;;;;6.51;67.79;100864.25;5064128;28;20056;-56
2022/05/10 10:46:30;;;;;;;11.15;4.30;;;;;;;6.48;67.62;100868.53;5064476;28;20048;-55
2022/05/10 10:49:10;;;;;;;13.10;4.97;;;;;;;6.53;67.55;100875.53;5065078;28;20064;-56
2022/05/10 10:51:41;;;;;;;12.02;4.32;;;;;;;6.45;67.63;100889.28;5064208;28;20053;-54
2022/05/10 10:54:19;;;;;;;10.45;5.00;;;;;;;6.40;68.00;100883.19;5065481;28;20053;-57
2022/05/10 10:57:09;;;;;;;15.43;4.47;;;;;;;6.30;68.11;100886.53;5064710;28;20060;-57
2022/05/10 11:00:04;;;;;;;9.23;4.28;;;;;;;6.16;68.88;100904.53;5064744;28;20114;-54
2022/05/10 11:03:03;;;;;;;12.30;4.68;;;;;;;6.11;68.77;100889.78;5064993;28;20382;-54
2022/05/10 11:06:09;;;;;;;11.88;4.40;;;;;;;5.95;69.02;100902.56;5064620;28;20060;-55
2022/05/10 11:09:03;;;;;;;14.27;4.68;;;;;;;5.88;69.51;100898.09;5050454;28;20199;-57
2022/05/10 11:11:49;;;;;;;11.80;4.68;;;;;;;5.82;69.55;100892.84;5059762;28;20061;-56
2022/05/10 11:14:39;;;;;;;12.32;3.90;;;;;;;5.76;69.78;100892.75;5060159;28;20601;-55
2022/05/10 11:17:16;;;;;;;7.32;3.45;;;;;;;5.73;69.92;100903.09;5062019;28;20216;-57
2022/05/10 11:20:13;;;;;;;8.85;4.20;;;;;;;5.72;70.07;100901.38;5064323;28;20056;-56
2022/05/10 11:22:49;;;;;;;14.55;4.55;;;;;;;5.83;69.96;100902.38;5063554;28;20068;-57
2022/05/10 11:25:33;;;;;;;10.73;3.92;;;;;;;5.76;69.83;100904.00;5064592;28;20064;-57
2022/05/10 11:28:28;;;;;;;9.82;3.83;;;;;;;5.75;69.85;100901.41;5064493;28;20124;-58
2022/05/10 11:31:08;;;;;;;11.00;4.40;;;;;;;5.77;70.17;100910.94;5062123;28;20108;-59
2022/05/10 11:33:50;;;;;;;11.57;4.40;;;;;;;5.74;70.06;100910.00;5064242;28;20091;-58
2022/05/10 11:36:36;;;;;;;10.13;4.18;;;;;;;5.57;70.40;100910.66;5064418;28;20136;-57
2022/05/10 11:39:42;;;;;;;10.50;3.90;;;;;;;5.59;70.60;100908.97;5063717;28;20060;-57
2022/05/10 11:42:32;;;;;;;9.95;4.63;;;;;;;5.70;70.27;100914.28;5033954;28;20119;-57
2022/05/10 11:45:24;;;;;;;11.60;5.03;;;;;;;5.66;70.51;100916.81;5063431;28;20080;-57
2022/05/10 11:48:21;;;;;;;9.73;4.63;;;;;;;5.66;70.47;100911.63;5053919;28;20718;-57
2022/05/10 11:51:42;;;;;;;13.05;5.68;;;;;;;5.58;70.56;100914.97;5064075;28;20060;-56
2022/05/10 11:54:55;;;;;;;10.23;4.60;;;;;;;5.46;71.14;100925.16;5063374;28;20118;-57
2022/05/10 11:57:28;;;;;;;13.38;5.63;;;;;;;5.49;70.54;100913.97;5063324;28;20059;-57
2022/05/10 12:00:39;;;;;;;15.32;5.65;;;;;;;5.59;70.68;100927.13;5063572;28;20053;-56
2022/05/10 12:03:12;;;;;;;16.88;6.03;;;;;;;5.47;70.53;100913.09;5063498;28;20334;-58
2022/05/10 12:05:43;;;;;;;16.67;6.70;;;;;;;5.35;70.91;100922.41;5063251;28;20041;-58
2022/05/10 12:08:36;;;;;;;15.77;6.35;;;;;;;5.27;71.48;100917.97;5062900;28;20343;-57
2022/05/10 12:11:39;;;;;;;14.55;5.85;;;;;;;5.29;71.67;100911.97;5063442;28;20309;-57
2022/05/10 12:23:04;;;;;;;11.48;5.03;;;;;;;4.89;73.09;100907.84;5062093;28;20056;-57
2022/05/10 12:25:57;;;;;;;11.90;4.95;;;;;;;4.93;73.20;100913.09;5063166;28;20044;-57
2022/05/10 12:28:44;;;;;;;13.75;5.28;;;;;;;4.28;73.33;100807.56;5063305;28;20139;-57